KDTN/DTN METAR and TAF weather

Enter ICAO airport designator
Station Type Date Time Source
KDTN METAR 2019/07/17 17:53 UTC NOAA

KDTN 171753Z 22007KT 10SM BKN039 32/23 A3008 RMK AO2 SLP181 T03220233 10333 20267 50001


Station Type Date Time Source
KDTN Decoded METAR 2019/07/17 17:53 UTC NOAA

SHREVEPORT DOWNTOWN AIRPORT, LA, United States (KDTN) 32-32N 093-45W 53M
Jul 17, 2019 - 01:53 PM EDT / 2019.07.17 1753 UTC
Wind: from the SW (220 degrees) at 8 MPH (7 KT):0
Visibility: 10 mile(s):0
Sky conditions: mostly cloudy
Temperature: 90.0 F (32.2 C)
Heat index: 99.1 F (37.3 C):1
Dew Point: 73.9 F (23.3 C)
Relative Humidity: 59%
Pressure (altimeter): 30.08 in. Hg (1018 hPa)
Pressure tendency: 0.00 inches (0.1 hPa) higher than three hours ago
ob: KDTN 171753Z 22007KT 10SM BKN039 32/23 A3008 RMK AO2 SLP181 T03220233 10333 20267 50001
cycle: 18

Station Type Date Time Source
KDTN TAF UTC NOAA

Error!

Example: see airport list